Time;durP1;ratioP1;P1;durP2;ratioP2;P2;SDS_P1;SDS_P2;PMS_P1;PMS_P2;Temp;Humidity;BMP_temperature;BMP_pressure;BME280_temperature;BME280_humidity;BME280_pressure;Samples;Min_cycle;Max_cycle;Signal;HPM_P1;HPM_P2
2022/01/25 00:28:19;;;;;;;34.77;8.87;;;;;;;;;;10449332;28;20037;-74
2022/01/25 00:33:22;;;;;;;20.37;6.10;;;;;;;;;;10455695;28;20489;-77
2022/01/25 00:38:26;;;;;;;25.02;7.07;;;;;;;;;;10453593;28;20036;-75
2022/01/25 00:43:31;;;;;;;28.30;7.97;;;;;;;;;;10439911;28;20037;-74
2022/01/25 00:48:43;;;;;;;23.87;7.57;;;;;;;;;;10439713;28;20047;-74
2022/01/25 00:53:58;;;;;;;30.20;7.93;;;;;;;;;;10440659;28;20096;-72
2022/01/25 00:59:04;;;;;;;25.37;6.57;;;;;;;;;;10439912;28;20086;-73
2022/01/25 01:04:08;;;;;;;15.07;4.97;;;;;;;;;;10421321;28;20072;-74
2022/01/25 01:09:12;;;;;;;26.60;7.28;;;;;;;;;;10444224;28;20423;-73
2022/01/25 01:14:21;;;;;;;21.20;6.68;;;;;;;;;;10432079;28;20033;-74
2022/01/25 01:30:16;;;;;;;27.60;8.53;;;;;;;;;;10436026;28;20045;-73
2022/01/25 01:35:42;;;;;;;9.65;3.58;;;;;;;;;;10421726;28;20036;-73
2022/01/25 01:46:22;;;;;;;22.07;6.30;;;;;;;;;;10441648;28;20072;-74
2022/01/25 01:51:29;;;;;;;24.00;6.50;;;;;;;;;;10446880;28;20037;-73
2022/01/25 01:56:32;;;;;;;20.97;7.03;;;;;;;;;;10445358;28;20036;-73
2022/01/25 02:01:41;;;;;;;22.85;6.75;;;;;;;;;;10429080;28;20399;-72
2022/01/25 02:06:44;;;;;;;15.20;5.50;;;;;;;;;;10446683;28;20029;-74
2022/01/25 02:11:50;;;;;;;25.73;7.73;;;;;;;;;;10442799;28;20037;-73
2022/01/25 02:17:05;;;;;;;34.17;8.60;;;;;;;;;;10449607;28;20411;-74
2022/01/25 02:22:31;;;;;;;31.58;8.45;;;;;;;;;;10448693;22;20340;-77
2022/01/25 02:27:34;;;;;;;18.73;5.47;;;;;;;;;;10401652;28;20112;-79
2022/01/25 02:32:37;;;;;;;23.00;6.73;;;;;;;;;;10401504;28;20512;-78
2022/01/25 02:37:41;;;;;;;29.70;7.77;;;;;;;;;;10401919;28;20409;-77
2022/01/25 02:42:44;;;;;;;14.07;3.07;;;;;;;;;;10405857;28;20132;-78
2022/01/25 02:53:20;;;;;;;20.20;6.70;;;;;;;;;;10339798;28;20428;-78
2022/01/25 02:58:24;;;;;;;23.53;6.80;;;;;;;;;;10405582;28;20063;-79
2022/01/25 03:03:27;;;;;;;12.27;3.70;;;;;;;;;;10393246;28;20045;-77
2022/01/25 03:08:31;;;;;;;28.93;6.83;;;;;;;;;;10390160;28;20084;-77
2022/01/25 03:13:47;;;;;;;8.07;2.77;;;;;;;;;;10401018;28;20410;-77
2022/01/25 03:18:53;;;;;;;18.13;5.43;;;;;;;;;;10389435;28;20115;-77
2022/01/25 03:23:58;;;;;;;17.00;4.93;;;;;;;;;;10401092;28;20108;-77
2022/01/25 03:29:01;;;;;;;10.57;3.70;;;;;;;;;;10399230;28;20076;-77
2022/01/25 03:34:05;;;;;;;8.48;2.20;;;;;;;;;;10398745;28;20048;-76
2022/01/25 03:39:09;;;;;;;15.47;4.63;;;;;;;;;;10400191;28;20088;-78
2022/01/25 03:44:12;;;;;;;21.77;6.40;;;;;;;;;;10397645;28;20033;-77
2022/01/25 03:54:37;;;;;;;26.43;6.23;;;;;;;;;;10384807;28;20436;-77
2022/01/25 03:59:40;;;;;;;13.30;4.60;;;;;;;;;;10400034;28;20093;-78
2022/01/25 04:04:45;;;;;;;19.80;5.67;;;;;;;;;;10424665;28;20230;-79
2022/01/25 04:09:49;;;;;;;27.10;7.13;;;;;;;;;;10417537;28;20303;-77
2022/01/25 04:14:52;;;;;;;20.00;5.63;;;;;;;;;;10398765;28;20034;-78
2022/01/25 04:20:12;;;;;;;20.03;5.43;;;;;;;;;;10406941;28;20034;-78
2022/01/25 04:25:16;;;;;;;23.77;5.57;;;;;;;;;;10392989;28;20084;-77
2022/01/25 04:30:21;;;;;;;20.67;6.00;;;;;;;;;;10400131;28;20413;-77
2022/01/25 04:35:29;;;;;;;10.43;3.67;;;;;;;;;;10389834;28;20033;-76
2022/01/25 04:56:46;;;;;;;16.93;5.40;;;;;;;;;;10404118;28;20064;-77
2022/01/25 05:01:51;;;;;;;10.30;3.90;;;;;;;;;;10400946;28;20045;-76
2022/01/25 05:07:02;;;;;;;10.60;4.63;;;;;;;;;;10399148;28;20097;-76
2022/01/25 05:12:09;;;;;;;15.67;4.30;;;;;;;;;;10401577;28;20111;-76
2022/01/25 05:17:17;;;;;;;10.90;3.67;;;;;;;;;;10406127;28;20076;-77
2022/01/25 05:22:25;;;;;;;1.37;0.80;;;;;;;;;;10411073;28;20678;-78
2022/01/25 05:27:30;;;;;;;11.07;2.60;;;;;;;;;;10396024;28;20620;-76
2022/01/25 05:32:34;;;;;;;13.90;3.33;;;;;;;;;;10410663;28;20025;-78
2022/01/25 05:37:41;;;;;;;10.60;2.83;;;;;;;;;;10408835;28;20273;-75
2022/01/25 05:43:50;;;;;;;6.60;1.40;;;;;;;;;;10404453;28;20101;-76
2022/01/25 05:48:10;;;;;;;4.03;1.43;;;;;;;;;;10405667;28;20038;-76
2022/01/25 05:53:14;;;;;;;7.38;3.25;;;;;;;;;;10404297;28;20104;-77
2022/01/25 05:58:18;;;;;;;10.87;2.40;;;;;;;;;;10407635;28;20030;-77
2022/01/25 06:03:21;;;;;;;11.80;3.23;;;;;;;;;;10387340;28;20042;-77
2022/01/25 06:08:24;;;;;;;14.10;3.30;;;;;;;;;;10398107;28;20056;-77
2022/01/25 06:13:29;;;;;;;6.40;2.50;;;;;;;;;;10397479;28;20034;-79
2022/01/25 06:18:32;;;;;;;5.00;1.43;;;;;;;;;;10402894;28;20351;-76
2022/01/25 06:23:34;;;;;;;8.03;2.27;;;;;;;;;;10408012;28;20159;-77
2022/01/25 06:28:39;;;;;;;4.70;1.40;;;;;;;;;;10400050;28;20273;-77
2022/01/25 06:33:43;;;;;;;11.27;3.17;;;;;;;;;;10407608;28;20149;-76
2022/01/25 06:38:45;;;;;;;2.88;1.67;;;;;;;;;;10388210;28;20065;-76
2022/01/25 06:43:50;;;;;;;7.50;2.20;;;;;;;;;;10403106;28;20049;-72
2022/01/25 06:48:53;;;;;;;9.77;3.93;;;;;;;;;;10403164;28;20504;-78
2022/01/25 06:53:56;;;;;;;12.17;3.20;;;;;;;;;;10391190;28;20131;-76
2022/01/25 06:59:00;;;;;;;9.07;2.87;;;;;;;;;;10399711;28;20102;-76
2022/01/25 07:04:03;;;;;;;;;;;;;;;;;;10406063;28;20049;-76
2022/01/25 07:09:06;;;;;;;15.27;4.53;;;;;;;;;;10407724;28;19932;-75
2022/01/25 07:14:10;;;;;;;20.87;6.97;;;;;;;;;;10400820;28;20452;-75
2022/01/25 07:19:13;;;;;;;16.43;5.07;;;;;;;;;;10386100;28;20123;-76
2022/01/25 07:24:17;;;;;;;11.20;3.20;;;;;;;;;;10403079;28;20069;-76
2022/01/25 07:29:21;;;;;;;7.10;2.80;;;;;;;;;;10399644;28;20191;-75
2022/01/25 07:34:24;;;;;;;3.53;1.73;;;;;;;;;;10404232;28;20116;-75
2022/01/25 07:39:42;;;;;;;6.00;2.03;;;;;;;;;;10400813;28;20044;-75
2022/01/25 07:44:49;;;;;;;13.63;5.27;;;;;;;;;;10385636;28;20101;-75
2022/01/25 07:49:54;;;;;;;14.40;4.03;;;;;;;;;;10400383;28;20370;-74
2022/01/25 07:54:56;;;;;;;;;;;;;;;;;;10401983;28;20064;-75
2022/01/25 08:00:01;;;;;;;5.67;1.87;;;;;;;;;;10400838;28;20353;-75
2022/01/25 08:05:04;;;;;;;11.30;4.47;;;;;;;;;;10380754;28;20139;-74
2022/01/25 08:10:27;;;;;;;3.07;1.53;;;;;;;;;;10264137;28;20106;-76
2022/01/25 08:15:48;;;;;;;20.70;5.60;;;;;;;;;;10164071;29;20055;-75
2022/01/25 08:21:10;;;;;;;3.97;1.70;;;;;;;;;;10195414;29;20047;-75
2022/01/25 08:26:35;;;;;;;1.77;1.43;;;;;;;;;;10409550;28;20060;-68
2022/01/25 08:32:16;;;;;;;16.57;6.30;;;;;;;;;;10395249;28;20050;-68
2022/01/25 08:37:27;;;;;;;25.23;7.80;;;;;;;;;;10352790;28;20033;-67
2022/01/25 08:42:36;;;;;;;13.60;3.93;;;;;;;;;;10358314;28;20133;-68
2022/01/25 08:47:47;;;;;;;10.87;4.73;;;;;;;;;;10366731;28;20458;-68
2022/01/25 08:52:50;;;;;;;12.47;4.40;;;;;;;;;;10376122;28;20517;-68
2022/01/25 08:58:06;;;;;;;16.03;5.03;;;;;;;;;;10378928;28;20262;-67
2022/01/25 09:03:11;;;;;;;21.40;5.43;;;;;;;;;;10375424;28;20480;-68
2022/01/25 09:08:22;;;;;;;23.17;7.13;;;;;;;;;;10363828;28;20097;-69
2022/01/25 09:13:31;;;;;;;34.43;10.33;;;;;;;;;;10400602;28;20512;-69
2022/01/25 09:18:36;;;;;;;13.65;5.60;;;;;;;;;;10387253;28;20399;-69
2022/01/25 09:23:39;;;;;;;26.57;7.23;;;;;;;;;;10374547;28;20053;-68
2022/01/25 09:28:42;;;;;;;30.73;9.17;;;;;;;;;;10366960;28;20084;-69
2022/01/25 09:33:47;;;;;;;21.60;6.00;;;;;;;;;;10355370;28;20144;-68
2022/01/25 09:38:51;;;;;;;21.37;7.27;;;;;;;;;;10359121;28;20061;-68
2022/01/25 09:43:54;;;;;;;22.40;7.45;;;;;;;;;;10358351;28;20501;-67
2022/01/25 09:48:59;;;;;;;23.80;8.77;;;;;;;;;;10351466;28;20403;-69
2022/01/25 09:54:02;;;;;;;6.13;3.20;;;;;;;;;;10363736;28;20137;-68
2022/01/25 09:59:06;;;;;;;25.73;8.45;;;;;;;;;;10365310;28;20133;-69
2022/01/25 10:04:24;;;;;;;20.48;8.75;;;;;;;;;;10369095;28;20438;-68
2022/01/25 10:09:29;;;;;;;23.35;11.07;;;;;;;;;;10365325;28;20037;-69
2022/01/25 10:14:33;;;;;;;25.10;11.75;;;;;;;;;;10370816;28;20592;-67
2022/01/25 10:19:40;;;;;;;;;;;;;;;;;;10348636;28;20201;-71
2022/01/25 10:24:45;;;;;;;24.25;12.20;;;;;;;;;;10374763;28;19952;-67
2022/01/25 10:29:49;;;;;;;24.77;12.30;;;;;;;;;;10390919;28;20120;-68
2022/01/25 10:34:53;;;;;;;25.67;13.52;;;;;;;;;;10390422;28;20088;-69
2022/01/25 10:39:58;;;;;;;25.38;13.35;;;;;;;;;;10371485;28;20125;-68
2022/01/25 10:45:03;;;;;;;22.42;12.80;;;;;;;;;;10379292;28;20148;-69
2022/01/25 10:50:12;;;;;;;19.48;12.05;;;;;;;;;;10372498;28;20387;-70
2022/01/25 10:55:17;;;;;;;22.67;12.23;;;;;;;;;;10379990;28;20034;-69
2022/01/25 11:00:20;;;;;;;20.63;12.43;;;;;;;;;;10392651;28;20473;-68
2022/01/25 11:05:25;;;;;;;20.70;12.50;;;;;;;;;;10378400;28;20033;-69
2022/01/25 11:10:33;;;;;;;19.38;12.02;;;;;;;;;;10380529;28;20042;-70
2022/01/25 11:15:36;;;;;;;17.20;11.82;;;;;;;;;;10371540;28;20042;-70
2022/01/25 11:20:40;;;;;;;22.48;12.63;;;;;;;;;;10370484;28;20132;-69
2022/01/25 11:25:46;;;;;;;21.80;11.98;;;;;;;;;;10365572;28;20040;-69
2022/01/25 11:30:50;;;;;;;19.45;11.60;;;;;;;;;;10345206;28;20046;-69
2022/01/25 11:35:54;;;;;;;20.77;11.48;;;;;;;;;;10363301;28;20120;-68
2022/01/25 11:40:58;;;;;;;21.60;12.60;;;;;;;;;;10368677;28;20046;-71
2022/01/25 11:46:02;;;;;;;18.48;11.38;;;;;;;;;;10398349;28;20100;-71
2022/01/25 11:51:07;;;;;;;16.98;10.60;;;;;;;;;;10365940;28;20067;-71
2022/01/25 11:56:12;;;;;;;20.95;11.13;;;;;;;;;;10363616;28;20640;-69
2022/01/25 12:01:20;;;;;;;19.15;11.30;;;;;;;;;;10359118;28;20474;-69
2022/01/25 12:06:26;;;;;;;18.25;11.18;;;;;;;;;;10357389;28;20038;-69
2022/01/25 12:11:34;;;;;;;15.45;10.15;;;;;;;;;;10357911;28;20064;-69
2022/01/25 12:16:43;;;;;;;19.33;10.57;;;;;;;;;;10349597;28;20126;-69
2022/01/25 12:21:58;;;;;;;17.27;10.40;;;;;;;;;;10359311;28;20532;-69
2022/01/25 12:27:07;;;;;;;16.55;10.30;;;;;;;;;;10369687;28;20455;-69
2022/01/25 12:32:23;;;;;;;16.52;10.18;;;;;;;;;;10365151;28;20042;-66
2022/01/25 12:37:45;;;;;;;13.82;9.80;;;;;;;;;;10368489;28;21009;-68
2022/01/25 12:42:50;;;;;;;18.47;10.37;;;;;;;;;;10368454;28;20041;-68
2022/01/25 12:47:53;;;;;;;15.00;9.57;;;;;;;;;;10383517;28;20096;-71
2022/01/25 12:52:59;;;;;;;16.98;10.45;;;;;;;;;;10352824;28;20172;-69
2022/01/25 12:58:05;;;;;;;21.60;11.68;;;;;;;;;;10371200;28;20068;-69
2022/01/25 13:03:15;;;;;;;21.95;11.27;;;;;;;;;;10367351;28;20042;-68
2022/01/25 13:08:21;;;;;;;21.02;11.70;;;;;;;;;;10369077;28;20418;-68
2022/01/25 13:13:31;;;;;;;20.65;11.82;;;;;;;;;;10359247;28;20441;-68
2022/01/25 13:18:39;;;;;;;18.90;11.48;;;;;;;;;;10367548;28;20096;-69
2022/01/25 13:23:50;;;;;;;23.85;11.82;;;;;;;;;;10369859;28;20030;-70
2022/01/25 13:30:38;;;;;;;18.33;10.18;;;;;;;;;;10369474;28;20034;-70
2022/01/25 13:34:22;;;;;;;17.52;9.38;;;;;;;;;;10369447;28;20034;-68
2022/01/25 13:39:26;;;;;;;19.98;10.07;;;;;;;;;;10359612;28;20033;-69
2022/01/25 13:50:07;;;;;;;18.63;9.23;;;;;;;;;;10197840;29;20624;-69
2022/01/25 13:55:11;;;;;;;18.02;9.82;;;;;;;;;;10326786;28;20049;-70
2022/01/25 14:00:17;;;;;;;20.63;10.82;;;;;;;;;;10367881;28;20157;-70
2022/01/25 14:05:20;;;;;;;21.67;10.25;;;;;;;;;;10375549;28;20041;-69
2022/01/25 14:10:27;;;;;;;17.45;7.30;;;;;;;;;;10352923;28;20034;-70
2022/01/25 14:26:13;;;;;;;18.80;8.57;;;;;;;;;;10392347;23;20351;-75
2022/01/25 14:31:18;;;;;;;19.47;8.53;;;;;;;;;;10365280;28;20064;-75
2022/01/25 14:36:22;;;;;;;21.98;8.90;;;;;;;;;;10362959;28;20141;-74
2022/01/25 14:41:28;;;;;;;25.08;8.73;;;;;;;;;;10360256;28;20072;-76
2022/01/25 14:46:36;;;;;;;24.80;8.77;;;;;;;;;;10353075;28;20042;-75
2022/01/25 14:52:06;;;;;;;;;;;;;;;;;;10361891;28;20054;-76
2022/01/25 14:57:12;;;;;;;19.27;6.63;;;;;;;;;;10364178;28;19925;-75
2022/01/25 15:02:18;;;;;;;24.35;8.15;;;;;;;;;;10356032;28;20128;-75
2022/01/25 15:07:24;;;;;;;20.95;7.97;;;;;;;;;;10360608;28;20125;-74
2022/01/25 15:12:33;;;;;;;21.45;6.38;;;;;;;;;;10347861;28;20117;-73
2022/01/25 15:17:37;;;;;;;31.55;10.43;;;;;;;;;;10364895;28;20038;-76
2022/01/25 15:22:43;;;;;;;27.23;9.80;;;;;;;;;;10361430;28;20103;-74
2022/01/25 15:27:46;;;;;;;26.90;9.43;;;;;;;;;;10348654;28;20517;-74
2022/01/25 15:32:51;;;;;;;21.33;7.47;;;;;;;;;;10357219;28;20046;-74
2022/01/25 15:37:59;;;;;;;36.53;12.13;;;;;;;;;;10359332;28;20769;-73
2022/01/25 15:43:03;;;;;;;26.33;10.20;;;;;;;;;;10364499;28;20412;-76
2022/01/25 15:48:07;;;;;;;29.80;9.67;;;;;;;;;;10348276;28;20592;-74
2022/01/25 15:53:10;;;;;;;28.37;7.73;;;;;;;;;;10366460;28;20517;-75
2022/01/25 15:58:14;;;;;;;21.40;6.47;;;;;;;;;;10363966;28;20038;-75
2022/01/25 16:03:19;;;;;;;32.17;10.20;;;;;;;;;;10367886;28;20490;-75
2022/01/25 16:08:23;;;;;;;12.13;3.87;;;;;;;;;;10367125;28;20044;-73
2022/01/25 16:13:26;;;;;;;22.93;7.37;;;;;;;;;;10369102;28;20454;-74
2022/01/25 16:18:30;;;;;;;28.07;8.47;;;;;;;;;;10375445;28;20105;-76
2022/01/25 16:23:33;;;;;;;30.67;9.93;;;;;;;;;;10380008;28;20107;-75
2022/01/25 16:28:36;;;;;;;27.17;9.00;;;;;;;;;;10368458;28;20115;-75
2022/01/25 16:33:40;;;;;;;27.53;9.80;;;;;;;;;;10368823;28;20042;-74
2022/01/25 16:38:44;;;;;;;;;;;;;;;;;;10372287;28;20030;-75
2022/01/25 16:43:47;;;;;;;26.70;8.90;;;;;;;;;;10346825;28;19956;-75
2022/01/25 16:48:52;;;;;;;21.58;8.13;;;;;;;;;;10359169;28;20030;-75
2022/01/25 16:53:55;;;;;;;24.93;8.70;;;;;;;;;;10363370;28;20042;-75
2022/01/25 16:59:01;;;;;;;27.17;7.97;;;;;;;;;;10343365;28;20042;-75
2022/01/25 17:04:07;;;;;;;31.03;11.17;;;;;;;;;;10366082;28;20046;-74
2022/01/25 17:09:10;;;;;;;15.63;5.30;;;;;;;;;;10365893;28;20050;-76
2022/01/25 17:14:13;;;;;;;28.47;8.43;;;;;;;;;;10370219;28;20529;-75
2022/01/25 17:19:17;;;;;;;26.13;9.10;;;;;;;;;;10369362;28;20097;-76
2022/01/25 17:24:25;;;;;;;24.83;8.07;;;;;;;;;;10362069;28;20049;-76
2022/01/25 17:29:28;;;;;;;38.30;11.77;;;;;;;;;;10364059;28;20085;-74
2022/01/25 17:34:32;;;;;;;27.40;9.17;;;;;;;;;;10361279;28;20041;-76
2022/01/25 17:39:35;;;;;;;27.77;8.97;;;;;;;;;;10357373;28;20482;-76
2022/01/25 17:44:38;;;;;;;37.23;10.80;;;;;;;;;;10375834;28;20049;-75
2022/01/25 17:49:44;;;;;;;26.42;9.02;;;;;;;;;;10355748;28;20072;-75
2022/01/25 17:54:47;;;;;;;50.40;15.23;;;;;;;;;;10354705;28;20046;-75
2022/01/25 17:59:50;;;;;;;23.93;7.80;;;;;;;;;;10352270;28;20045;-76
2022/01/25 18:04:55;;;;;;;17.33;5.87;;;;;;;;;;10372974;28;20117;-75
2022/01/25 18:09:58;;;;;;;33.57;11.03;;;;;;;;;;10381733;28;20072;-74
2022/01/25 18:15:02;;;;;;;25.47;7.63;;;;;;;;;;10393585;28;20100;-73
2022/01/25 18:20:08;;;;;;;9.43;3.30;;;;;;;;;;10360600;28;20065;-75
2022/01/25 18:25:36;;;;;;;18.80;6.30;;;;;;;;;;10366230;28;20117;-76
2022/01/25 18:30:35;;;;;;;25.30;6.95;;;;;;;;;;10353820;28;20040;-74
2022/01/25 18:35:45;;;;;;;22.53;7.93;;;;;;;;;;10332390;28;20053;-76
2022/01/25 18:40:48;;;;;;;26.70;7.00;;;;;;;;;;10365083;28;20710;-76
2022/01/25 18:45:52;;;;;;;23.23;7.70;;;;;;;;;;10364504;28;20463;-76
2022/01/25 18:50:57;;;;;;;19.07;5.73;;;;;;;;;;10365093;28;20030;-75
2022/01/25 18:56:00;;;;;;;40.73;10.90;;;;;;;;;;10357446;28;20409;-76
2022/01/25 19:01:07;;;;;;;12.23;4.43;;;;;;;;;;10360161;28;20096;-75
2022/01/25 19:06:12;;;;;;;38.47;11.10;;;;;;;;;;10365891;28;20125;-75
2022/01/25 19:11:15;;;;;;;25.30;9.43;;;;;;;;;;10359482;28;20060;-76
2022/01/25 19:16:18;;;;;;;19.43;6.13;;;;;;;;;;10362035;28;20042;-76
2022/01/25 19:21:23;;;;;;;28.70;8.73;;;;;;;;;;10357240;28;20378;-76
2022/01/25 19:26:26;;;;;;;40.13;12.13;;;;;;;;;;10360031;28;20098;-75
2022/01/25 19:31:29;;;;;;;44.47;10.57;;;;;;;;;;10359047;28;20030;-76
2022/01/25 19:36:34;;;;;;;14.87;5.17;;;;;;;;;;10356701;28;20440;-75
2022/01/25 19:41:37;;;;;;;24.83;7.80;;;;;;;;;;10356301;28;20343;-74
2022/01/25 19:46:40;;;;;;;21.77;7.03;;;;;;;;;;10355233;28;20137;-75
2022/01/25 19:51:45;;;;;;;10.87;4.93;;;;;;;;;;10359005;28;20042;-75
2022/01/25 19:56:54;;;;;;;26.17;7.63;;;;;;;;;;10354894;28;20034;-75
2022/01/25 20:01:57;;;;;;;11.07;4.37;;;;;;;;;;10360641;28;20049;-76
2022/01/25 20:07:02;;;;;;;43.57;12.03;;;;;;;;;;10355314;28;20038;-76
2022/01/25 20:12:07;;;;;;;30.47;9.23;;;;;;;;;;10356661;28;20496;-76
2022/01/25 20:17:31;;;;;;;39.05;11.68;;;;;;;;;;10352122;28;20113;-75
2022/01/25 20:22:44;;;;;;;6.37;2.73;;;;;;;;;;10353930;22;20050;-66
2022/01/25 20:27:55;;;;;;;12.43;4.07;;;;;;;;;;10350493;28;20112;-70
2022/01/25 20:32:58;;;;;;;16.67;5.43;;;;;;;;;;10356758;28;20124;-68
2022/01/25 20:38:03;;;;;;;8.05;3.28;;;;;;;;;;10361408;28;20471;-69
2022/01/25 20:43:08;;;;;;;21.83;6.53;;;;;;;;;;10356246;28;20058;-69
2022/01/25 20:48:11;;;;;;;34.47;9.87;;;;;;;;;;10361245;28;20046;-70
2022/01/25 20:53:17;;;;;;;42.78;9.18;;;;;;;;;;10360476;28;20052;-69
2022/01/25 21:10:36;;;;;;;20.67;6.37;;;;;;;;;;10355654;28;20033;-67
2022/01/25 21:15:56;;;;;;;37.67;11.60;;;;;;;;;;10354159;28;20056;-69
2022/01/25 21:20:59;;;;;;;31.90;8.37;;;;;;;;;;10353338;28;20062;-68
2022/01/25 21:26:04;;;;;;;19.47;6.43;;;;;;;;;;10357703;28;20084;-68
2022/01/25 21:31:18;;;;;;;34.60;9.03;;;;;;;;;;10360697;28;20070;-70
2022/01/25 21:36:22;;;;;;;45.53;12.17;;;;;;;;;;10356754;28;20497;-70
2022/01/25 21:41:27;;;;;;;47.15;12.90;;;;;;;;;;10348027;28;20536;-68
2022/01/25 21:46:29;;;;;;;38.70;10.37;;;;;;;;;;10336860;28;20156;-69
2022/01/25 21:51:32;;;;;;;45.97;11.40;;;;;;;;;;10346408;28;20457;-69
2022/01/25 21:56:37;;;;;;;16.70;4.60;;;;;;;;;;10335697;28;20076;-69
2022/01/25 22:01:40;;;;;;;21.10;7.23;;;;;;;;;;10357806;28;20537;-69
2022/01/25 22:06:48;;;;;;;14.73;5.10;;;;;;;;;;10357947;28;20074;-70
2022/01/25 22:12:01;;;;;;;18.37;5.53;;;;;;;;;;10342552;28;20863;-69
2022/01/25 22:17:05;;;;;;;44.00;11.37;;;;;;;;;;10362444;28;20045;-71
2022/01/25 22:22:10;;;;;;;25.90;7.83;;;;;;;;;;10366972;28;20033;-70
2022/01/25 22:27:14;;;;;;;17.13;6.83;;;;;;;;;;10366086;28;20038;-69
2022/01/25 22:32:17;;;;;;;39.40;9.13;;;;;;;;;;10358451;28;20064;-70
2022/01/25 22:37:20;;;;;;;43.27;11.97;;;;;;;;;;10357409;28;20231;-68
2022/01/25 22:42:24;;;;;;;38.40;10.90;;;;;;;;;;10362186;28;20072;-69
2022/01/25 22:47:38;;;;;;;50.43;11.90;;;;;;;;;;10360982;28;20076;-68
2022/01/25 22:52:41;;;;;;;46.37;12.50;;;;;;;;;;10357585;28;20077;-68
2022/01/25 22:57:47;;;;;;;39.43;10.20;;;;;;;;;;10340668;28;20303;-67
2022/01/25 23:02:50;;;;;;;13.87;5.70;;;;;;;;;;10358971;28;20038;-68
2022/01/25 23:07:53;;;;;;;48.40;13.20;;;;;;;;;;10357729;28;20092;-69
2022/01/25 23:13:27;;;;;;;51.33;12.57;;;;;;;;;;10359069;28;20188;-68
2022/01/25 23:18:29;;;;;;;40.30;12.90;;;;;;;;;;10357332;28;20145;-70
2022/01/25 23:23:34;;;;;;;48.03;12.50;;;;;;;;;;10357083;28;20544;-69
2022/01/25 23:28:42;;;;;;;13.57;5.53;;;;;;;;;;10355040;28;20322;-68
2022/01/25 23:33:59;;;;;;;41.37;12.07;;;;;;;;;;10355843;28;20109;-70
2022/01/25 23:39:10;;;;;;;45.40;13.03;;;;;;;;;;10373651;28;20465;-70
2022/01/25 23:44:20;;;;;;;36.23;9.97;;;;;;;;;;10358141;28;20089;-70
2022/01/25 23:49:33;;;;;;;46.07;12.37;;;;;;;;;;10354073;28;20065;-69
